Dupont, Ohio
Current Conditions -  °F | °C
As of 1:53 PM on Monday 20 Oct 2014 (Local Time) from KDFI Reporting Station
Light Rain Light Rain  
Wind Chill: 53°   Ceiling: 6500
Heat Index: 53°   Visibility: 4mi
Dew Point: 50°   Wind: 9mph
Humidity: 89%   Direction: 210°SSW
Pressure: 29.83"   Gusts: NA
Location:  41.06°N, 84.3°W
Report Text: KDFI 201753Z AUTO 21008KT 4SM -RA BR BKN065 OVC080 12/10 A2983 RMK AO2 LTG DSNT SW SLP102 P0006 60013 T01170100 10122 20094 57013
Loading
Personal Weather Stations






























Interactive Weather Map
Tropical Storm Tracking
New forecast layout! Learn more

10-Day Weather Forecast

Advertisements
Track Severe Weather on mobile